Time;durP1;ratioP1;P1;durP2;ratioP2;P2;SDS_P1;SDS_P2;PMS_P1;PMS_P2;Temp;Humidity;BMP_temperature;BMP_pressure;BME280_temperature;BME280_humidity;BME280_pressure;Samples;Min_cycle;Max_cycle;Signal;HPM_P1;HPM_P2
2023/05/13 00:02:09;;;;;;;12.85;11.13;;;;;;;12.75;100.00;101883.47;5055628;28;20527;-51
2023/05/13 00:04:34;;;;;;;14.13;10.32;;;;;;;12.71;100.00;101886.78;5055813;28;20032;-51
2023/05/13 00:06:59;;;;;;;11.15;10.05;;;;;;;12.67;100.00;101884.91;5056150;28;20023;-51
2023/05/13 00:09:24;;;;;;;13.88;10.50;;;;;;;12.63;100.00;101885.63;5054982;28;20040;-51
2023/05/13 00:11:50;;;;;;;11.50;10.32;;;;;;;12.60;100.00;101888.06;5055939;28;20108;-52
2023/05/13 00:14:15;;;;;;;12.95;9.35;;;;;;;12.58;100.00;101890.59;5055622;28;20045;-48
2023/05/13 00:16:41;;;;;;;11.48;10.00;;;;;;;12.57;100.00;101894.00;5055351;28;20057;-51
2023/05/13 00:19:07;;;;;;;11.88;10.52;;;;;;;12.44;100.00;101887.50;5055793;28;20418;-51
2023/05/13 00:21:32;;;;;;;13.15;10.35;;;;;;;12.40;100.00;101885.63;5055698;28;20477;-51
2023/05/13 00:23:58;;;;;;;13.30;10.60;;;;;;;12.33;100.00;101883.59;5055120;28;20041;-50
2023/05/13 00:26:23;;;;;;;12.30;11.00;;;;;;;12.21;100.00;101885.72;5055622;28;20063;-50
2023/05/13 00:28:48;;;;;;;14.05;10.73;;;;;;;12.15;100.00;101887.25;5055666;28;20049;-50
2023/05/13 00:31:14;;;;;;;13.30;10.25;;;;;;;12.03;100.00;101886.72;5055192;28;20444;-51
2023/05/13 00:33:39;;;;;;;14.98;11.02;;;;;;;12.02;100.00;101872.94;5055329;28;20033;-49
2023/05/13 00:36:05;;;;;;;11.45;9.77;;;;;;;11.96;100.00;101884.75;5055031;28;20453;-46
2023/05/13 00:38:31;;;;;;;11.43;10.18;;;;;;;11.90;100.00;101884.44;5055191;28;20025;-52
2023/05/13 00:40:57;;;;;;;11.55;9.70;;;;;;;11.94;100.00;101883.75;5055604;28;20021;-50
2023/05/13 00:43:22;;;;;;;11.45;10.23;;;;;;;11.85;100.00;101882.56;5054488;28;20091;-50
2023/05/13 00:45:47;;;;;;;12.70;10.07;;;;;;;11.86;100.00;101886.94;5055769;28;20017;-50
2023/05/13 00:48:13;;;;;;;12.95;10.02;;;;;;;11.84;100.00;101885.97;5055582;28;20049;-51
2023/05/13 00:50:41;;;;;;;11.48;10.27;;;;;;;11.86;100.00;101886.94;5054172;28;20036;-51
2023/05/13 00:53:06;;;;;;;11.73;10.25;;;;;;;11.83;100.00;101889.34;5055368;28;20025;-51
2023/05/13 00:55:31;;;;;;;11.00;9.88;;;;;;;11.85;100.00;101890.31;5054903;28;20033;-50
2023/05/13 00:57:57;;;;;;;14.07;9.95;;;;;;;11.76;100.00;101884.78;5054449;28;20063;-52
2023/05/13 01:00:22;;;;;;;11.15;10.02;;;;;;;11.68;100.00;101888.72;5054737;28;20059;-51
2023/05/13 01:02:56;;;;;;;14.02;10.70;;;;;;;11.70;100.00;101884.53;5055249;28;20079;-51
2023/05/13 01:05:24;;;;;;;11.38;10.23;;;;;;;11.70;100.00;101887.09;5054125;28;20029;-51
2023/05/13 01:08:03;;;;;;;14.55;11.27;;;;;;;11.60;100.00;101890.13;5054664;28;20017;-51
2023/05/13 01:10:46;;;;;;;13.43;11.15;;;;;;;11.59;100.00;101886.63;5054596;28;20366;-51
2023/05/13 01:13:15;;;;;;;15.35;11.23;;;;;;;11.51;100.00;101883.72;5054051;28;20423;-50
2023/05/13 01:15:50;;;;;;;12.70;11.00;;;;;;;11.48;100.00;101886.19;5054896;28;20041;-51
2023/05/13 01:18:28;;;;;;;16.15;10.95;;;;;;;11.45;100.00;101885.16;5053956;28;20033;-48
2023/05/13 01:20:55;;;;;;;12.57;10.30;;;;;;;11.41;100.00;101885.88;5054772;28;20025;-47
2023/05/13 01:23:20;;;;;;;15.93;10.63;;;;;;;11.36;100.00;101886.56;5054629;28;20029;-51
2023/05/13 01:25:47;;;;;;;13.73;10.98;;;;;;;11.37;100.00;101882.25;5053951;28;20033;-51
2023/05/13 01:28:13;;;;;;;12.18;10.98;;;;;;;11.31;100.00;101882.91;5054766;28;20443;-51
2023/05/13 01:30:38;;;;;;;11.23;9.88;;;;;;;11.34;100.00;101879.56;5054316;28;20484;-51
2023/05/13 01:33:04;;;;;;;12.93;10.82;;;;;;;11.27;100.00;101883.59;5053725;28;20116;-51
2023/05/13 01:35:30;;;;;;;12.93;10.60;;;;;;;11.23;100.00;101880.78;5053831;28;20082;-50
2023/05/13 01:37:56;;;;;;;11.85;10.63;;;;;;;11.18;100.00;101883.16;5054641;28;20025;-52
2023/05/13 01:40:22;;;;;;;12.45;9.93;;;;;;;11.13;100.00;101890.72;5053577;28;20071;-51
2023/05/13 01:42:47;;;;;;;11.88;10.68;;;;;;;11.06;100.00;101877.47;5054388;28;20025;-51
2023/05/13 01:45:13;;;;;;;14.65;10.52;;;;;;;11.03;100.00;101881.66;5054284;28;20056;-51
2023/05/13 01:47:38;;;;;;;13.23;10.30;;;;;;;11.00;100.00;101886.72;5053247;28;20540;-52
2023/05/13 01:50:04;;;;;;;14.55;9.75;;;;;;;10.96;100.00;101886.50;5054611;28;20013;-52
2023/05/13 01:52:29;;;;;;;12.07;10.38;;;;;;;10.95;100.00;101892.47;5054094;28;20416;-50
2023/05/13 01:54:54;;;;;;;11.90;10.15;;;;;;;10.89;100.00;101894.78;5053357;28;20384;-51
2023/05/13 01:57:20;;;;;;;11.55;10.02;;;;;;;10.83;100.00;101901.44;5053980;28;20048;-50
2023/05/13 01:59:45;;;;;;;13.35;10.70;;;;;;;10.80;100.00;101890.09;5054063;28;20048;-51
2023/05/13 02:02:10;;;;;;;11.82;10.60;;;;;;;10.75;100.00;101895.03;5053167;28;20075;-49
2023/05/13 02:04:36;;;;;;;11.50;10.30;;;;;;;10.68;100.00;101900.72;5053692;28;20056;-51
2023/05/13 02:07:02;;;;;;;13.98;10.50;;;;;;;10.64;100.00;101891.97;5054035;28;20045;-52
2023/05/13 02:09:27;;;;;;;13.43;10.88;;;;;;;10.63;100.00;101886.75;5052918;28;20100;-51
2023/05/13 02:11:52;;;;;;;13.75;10.80;;;;;;;10.61;100.00;101896.97;5053827;28;20086;-52
2023/05/13 02:14:17;;;;;;;13.63;10.20;;;;;;;10.55;100.00;101888.97;5053203;28;20124;-52
2023/05/13 02:16:43;;;;;;;12.80;10.57;;;;;;;10.44;100.00;101895.31;5053084;28;20032;-51
2023/05/13 02:19:08;;;;;;;12.45;10.43;;;;;;;10.38;100.00;101895.91;5052940;28;20024;-52
2023/05/13 02:21:33;;;;;;;11.98;10.77;;;;;;;10.32;100.00;101890.44;5052745;28;20028;-51
2023/05/13 02:23:59;;;;;;;11.93;10.77;;;;;;;10.26;100.00;101895.28;5053705;28;20029;-51
2023/05/13 02:26:24;;;;;;;11.85;10.43;;;;;;;10.29;100.00;101890.28;5053390;28;20032;-50
2023/05/13 02:28:49;;;;;;;13.05;10.43;;;;;;;10.24;100.00;101891.75;5052814;28;20098;-50
2023/05/13 02:31:15;;;;;;;14.55;11.05;;;;;;;10.15;100.00;101898.22;5053470;28;20380;-52
2023/05/13 02:33:40;;;;;;;13.02;11.18;;;;;;;10.09;100.00;101890.19;5053359;28;20457;-52
2023/05/13 02:36:06;;;;;;;14.10;11.68;;;;;;;10.06;100.00;101897.78;5052603;28;20028;-52
2023/05/13 02:38:31;;;;;;;13.85;11.35;;;;;;;10.00;100.00;101897.50;5053160;28;20029;-51
2023/05/13 02:40:56;;;;;;;12.82;11.52;;;;;;;9.96;100.00;101898.16;5053300;28;20017;-51
2023/05/13 02:43:23;;;;;;;12.98;11.63;;;;;;;9.86;100.00;101895.13;5052368;28;20480;-51
2023/05/13 02:45:49;;;;;;;13.32;11.93;;;;;;;9.83;100.00;101888.94;5053200;28;20025;-50
2023/05/13 02:48:14;;;;;;;14.65;11.95;;;;;;;9.81;100.00;101891.44;5053044;28;20025;-51
2023/05/13 02:50:40;;;;;;;13.35;11.95;;;;;;;9.79;100.00;101887.91;5052273;28;20044;-51
2023/05/13 02:53:06;;;;;;;13.20;11.90;;;;;;;9.75;100.00;101885.09;5053160;28;20083;-51
2023/05/13 02:55:31;;;;;;;14.82;12.50;;;;;;;9.70;100.00;101882.31;5052814;28;20487;-51
2023/05/13 02:57:56;;;;;;;14.68;12.15;;;;;;;9.72;100.00;101890.97;5052313;28;20025;-51
2023/05/13 03:00:21;;;;;;;14.68;12.18;;;;;;;9.68;100.00;101883.91;5052778;28;20066;-50
2023/05/13 03:02:47;;;;;;;14.15;12.52;;;;;;;9.65;100.00;101883.75;5053104;28;20049;-51
2023/05/13 03:05:12;;;;;;;13.93;12.52;;;;;;;9.60;100.00;101886.09;5052319;28;20021;-51
2023/05/13 03:07:37;;;;;;;16.50;13.00;;;;;;;9.59;100.00;101886.03;5052793;28;20421;-51
2023/05/13 03:10:03;;;;;;;15.00;13.45;;;;;;;9.52;100.00;101890.84;5052963;28;20024;-51
2023/05/13 03:12:28;;;;;;;15.90;12.82;;;;;;;9.47;100.00;101884.59;5051815;28;20025;-52
2023/05/13 03:14:53;;;;;;;17.17;13.43;;;;;;;9.43;100.00;101887.81;5052639;28;20524;-51
2023/05/13 03:17:19;;;;;;;14.32;12.80;;;;;;;9.41;100.00;101881.69;5052588;28;20392;-52
2023/05/13 03:19:44;;;;;;;15.00;13.32;;;;;;;9.37;100.00;101884.91;5051958;28;20025;-50
2023/05/13 03:22:09;;;;;;;15.30;13.38;;;;;;;9.33;100.00;101885.56;5052931;28;20049;-51
2023/05/13 03:24:35;;;;;;;15.20;13.52;;;;;;;9.27;100.00;101891.31;5052486;28;20098;-50
2023/05/13 03:27:00;;;;;;;15.63;14.02;;;;;;;9.26;100.00;101891.19;5051989;28;20021;-51
2023/05/13 03:29:25;;;;;;;15.43;13.88;;;;;;;9.23;100.00;101895.41;5052408;28;20029;-50
2023/05/13 03:31:52;;;;;;;16.67;13.10;;;;;;;9.23;100.00;101885.13;5055689;28;20049;-52
2023/05/13 03:34:17;;;;;;;16.10;14.55;;;;;;;9.17;100.00;101889.94;5056038;28;20484;-51
2023/05/13 03:36:42;;;;;;;15.68;13.85;;;;;;;9.16;100.00;101889.84;5056782;28;20503;-51
2023/05/13 03:39:08;;;;;;;15.25;13.65;;;;;;;9.11;100.00;101897.31;5055951;28;20036;-51
2023/05/13 03:41:33;;;;;;;16.13;14.52;;;;;;;9.08;100.00;101894.59;5056499;28;20096;-51
2023/05/13 03:43:59;;;;;;;16.52;14.88;;;;;;;9.09;100.00;101887.75;5056638;28;20163;-51
2023/05/13 03:46:26;;;;;;;16.63;14.70;;;;;;;9.06;100.00;101893.63;5055399;28;20099;-52
2023/05/13 03:48:51;;;;;;;16.27;14.25;;;;;;;9.02;100.00;101892.56;5056638;28;20040;-52
2023/05/13 03:51:17;;;;;;;15.90;14.40;;;;;;;8.97;100.00;101900.84;5056064;28;20384;-51
2023/05/13 03:53:42;;;;;;;17.17;15.48;;;;;;;8.94;100.00;101900.72;5055746;28;20025;-51
2023/05/13 03:56:07;;;;;;;16.48;14.77;;;;;;;8.89;100.00;101901.31;5056362;28;20387;-51
2023/05/13 03:58:33;;;;;;;17.70;15.88;;;;;;;8.87;100.00;101902.94;5056049;28;20487;-52
2023/05/13 04:00:58;;;;;;;17.63;15.82;;;;;;;8.82;100.00;101901.81;5055582;28;20487;-50
2023/05/13 04:03:23;;;;;;;20.20;16.45;;;;;;;8.81;100.00;101901.75;5055882;28;20028;-50
2023/05/13 04:05:50;;;;;;;18.35;16.40;;;;;;;8.78;100.00;101904.13;5056333;28;20048;-51
2023/05/13 04:08:16;;;;;;;18.35;16.23;;;;;;;8.81;100.00;101905.19;5055058;28;20560;-51
2023/05/13 04:10:41;;;;;;;19.63;16.83;;;;;;;8.80;100.00;101903.41;5056041;28;20108;-51
2023/05/13 04:13:06;;;;;;;17.83;15.93;;;;;;;8.80;100.00;101898.25;5056157;28;20461;-50
2023/05/13 04:15:32;;;;;;;19.23;17.23;;;;;;;8.81;100.00;101894.91;5054737;28;20052;-51
2023/05/13 04:17:57;;;;;;;19.65;17.55;;;;;;;8.82;100.00;101901.81;5055816;28;20017;-51
2023/05/13 04:20:23;;;;;;;19.52;16.73;;;;;;;8.83;100.00;101911.31;5055760;28;20404;-50
2023/05/13 04:22:48;;;;;;;18.67;16.88;;;;;;;8.82;100.00;101912.09;5055159;28;20045;-51
2023/05/13 04:25:14;;;;;;;19.15;17.10;;;;;;;8.88;100.00;101906.38;5055705;28;20025;-51
2023/05/13 04:27:39;;;;;;;19.85;17.85;;;;;;;8.87;100.00;101914.88;5055525;28;20033;-50
2023/05/13 04:30:05;;;;;;;17.83;16.02;;;;;;;8.89;100.00;101908.16;5054841;28;20036;-51
2023/05/13 04:32:30;;;;;;;19.00;17.13;;;;;;;8.93;100.00;101910.09;5055235;28;20109;-51
2023/05/13 04:34:56;;;;;;;20.00;17.92;;;;;;;8.99;100.00;101912.13;5055764;28;20079;-51
2023/05/13 04:37:21;;;;;;;19.55;17.52;;;;;;;9.01;100.00;101910.50;5054600;28;20090;-51
2023/05/13 04:39:47;;;;;;;19.33;17.42;;;;;;;9.06;100.00;101922.81;5055635;28;20138;-51
2023/05/13 04:42:15;;;;;;;20.23;18.02;;;;;;;9.09;100.00;101921.19;5054256;28;20086;-50
2023/05/13 04:44:41;;;;;;;19.77;17.95;;;;;;;9.11;100.00;101920.47;5055520;28;20078;-51
2023/05/13 04:47:06;;;;;;;20.17;18.25;;;;;;;9.16;100.00;101923.28;5055297;28;20120;-51
2023/05/13 04:49:32;;;;;;;20.23;18.13;;;;;;;9.20;100.00;101920.94;5054463;28;20328;-50
2023/05/13 04:51:57;;;;;;;19.98;17.95;;;;;;;9.27;100.00;101926.41;5055516;28;20021;-51
2023/05/13 04:54:23;;;;;;;20.48;18.45;;;;;;;9.33;100.00;101921.59;5054796;28;20032;-50
2023/05/13 04:56:48;;;;;;;21.80;18.65;;;;;;;9.39;100.00;101927.94;5054402;28;20480;-51
2023/05/13 04:59:13;;;;;;;22.50;17.60;;;;;;;9.47;100.00;101925.75;5055254;28;20514;-51
2023/05/13 05:01:38;;;;;;;19.58;17.67;;;;;;;9.54;100.00;101926.94;5054814;28;20111;-51
2023/05/13 05:04:04;;;;;;;21.58;17.20;;;;;;;9.60;100.00;101926.41;5054600;28;20025;-49
2023/05/13 05:06:30;;;;;;;19.98;17.98;;;;;;;9.67;100.00;101936.19;5054684;28;20374;-50
2023/05/13 05:08:55;;;;;;;19.60;16.67;;;;;;;9.72;100.00;101932.16;5054891;28;20488;-51
2023/05/13 05:11:20;;;;;;;18.95;17.02;;;;;;;9.79;100.00;101923.94;5054026;28;20071;-51
2023/05/13 05:13:46;;;;;;;18.60;16.80;;;;;;;9.83;100.00;101925.84;5054748;28;20037;-51
2023/05/13 05:16:11;;;;;;;21.40;17.25;;;;;;;9.90;100.00;101934.75;5054684;28;20396;-50
2023/05/13 05:18:36;;;;;;;20.23;17.58;;;;;;;9.97;100.00;101934.28;5053956;28;20101;-52
2023/05/13 05:21:02;;;;;;;21.17;16.85;;;;;;;10.05;100.00;101937.22;5054949;28;20453;-52
2023/05/13 05:23:27;;;;;;;19.02;17.02;;;;;;;10.14;100.00;101947.97;5054544;28;20454;-51
2023/05/13 05:25:52;;;;;;;20.20;16.65;;;;;;;10.26;100.00;101941.66;5054015;28;20445;-52
2023/05/13 05:28:18;;;;;;;19.00;17.10;;;;;;;10.34;100.00;101941.22;5054321;28;20048;-51
2023/05/13 05:30:43;;;;;;;21.58;16.95;;;;;;;10.43;100.00;101940.84;5054610;28;20025;-49
2023/05/13 05:33:09;;;;;;;19.38;17.35;;;;;;;10.49;100.00;101946.25;5054028;28;20075;-52
2023/05/13 05:35:36;;;;;;;19.20;16.65;;;;;;;10.53;100.00;101947.28;5054308;28;20036;-51
2023/05/13 05:38:02;;;;;;;18.33;16.53;;;;;;;10.60;100.00;101953.59;5054518;28;20033;-52
2023/05/13 05:40:28;;;;;;;21.17;17.88;;;;;;;10.66;100.00;101951.31;5053494;28;20279;-51
2023/05/13 05:42:53;;;;;;;19.33;17.35;;;;;;;10.69;100.00;101951.47;5054307;28;20029;-51
2023/05/13 05:45:18;;;;;;;20.17;17.63;;;;;;;10.65;100.00;101958.19;5053916;28;20120;-51
2023/05/13 05:47:43;;;;;;;19.52;17.70;;;;;;;10.62;100.00;101957.16;5053683;28;20131;-48
2023/05/13 05:50:09;;;;;;;22.42;17.67;;;;;;;10.64;100.00;101956.41;5054412;28;20036;-51
2023/05/13 05:52:34;;;;;;;19.80;17.90;;;;;;;10.76;100.00;101961.25;5053352;28;20617;-49
2023/05/13 05:55:00;;;;;;;20.45;18.40;;;;;;;10.87;100.00;101959.16;5053079;28;20029;-51
2023/05/13 05:57:26;;;;;;;21.23;18.02;;;;;;;11.01;100.00;101963.28;5053990;28;20350;-51
2023/05/13 05:59:51;;;;;;;21.45;19.17;;;;;;;11.13;100.00;101960.38;5053291;28;20072;-52
2023/05/13 06:02:16;;;;;;;19.58;17.58;;;;;;;11.22;100.00;101957.34;5053898;28;20056;-51
2023/05/13 06:04:42;;;;;;;21.52;19.23;;;;;;;11.38;100.00;101958.00;5053955;28;20362;-50
2023/05/13 06:07:07;;;;;;;20.08;17.98;;;;;;;11.46;100.00;101962.69;5053290;28;20059;-50
2023/05/13 06:09:33;;;;;;;20.95;18.05;;;;;;;11.52;100.00;101968.13;5053426;28;20070;-51
2023/05/13 06:11:58;;;;;;;20.55;18.35;;;;;;;11.60;100.00;101959.84;5053835;28;20055;-51
2023/05/13 06:14:23;;;;;;;19.80;17.67;;;;;;;11.64;100.00;101957.44;5052361;28;20052;-51
2023/05/13 06:16:48;;;;;;;19.80;17.33;;;;;;;11.57;100.00;101955.41;5053850;28;20070;-51
2023/05/13 06:19:14;;;;;;;20.92;18.75;;;;;;;11.63;100.00;101966.03;5053843;28;20389;-50
2023/05/13 06:21:41;;;;;;;20.33;18.02;;;;;;;11.71;100.00;101963.75;5052643;28;20096;-50
2023/05/13 06:24:07;;;;;;;;;;;;;;;11.77;100.00;101969.16;5053996;28;20025;-52
2023/05/13 06:26:32;;;;;;;19.70;17.60;;;;;;;11.68;100.00;101979.09;5053306;28;19912;-50
2023/05/13 06:28:57;;;;;;;24.45;18.10;;;;;;;11.83;100.00;101974.59;5052631;28;20562;-51
2023/05/13 06:31:22;;;;;;;21.75;18.02;;;;;;;11.84;100.00;101971.22;5053065;28;20036;-51
2023/05/13 06:33:48;;;;;;;19.95;17.90;;;;;;;11.75;100.00;101973.41;5053489;28;20035;-52
2023/05/13 06:36:13;;;;;;;19.30;17.27;;;;;;;11.68;100.00;101981.69;5052634;28;20071;-51
2023/05/13 06:38:38;;;;;;;24.80;18.88;;;;;;;11.61;100.00;101977.09;5053083;28;20035;-51
2023/05/13 06:41:03;;;;;;;20.40;18.20;;;;;;;11.60;100.00;101971.03;5053198;28;20033;-52
2023/05/13 06:43:29;;;;;;;21.60;18.80;;;;;;;11.65;100.00;101973.81;5052208;28;20457;-52
2023/05/13 06:45:54;;;;;;;19.95;17.85;;;;;;;11.72;100.00;101970.66;5053267;28;20031;-51
2023/05/13 06:48:19;;;;;;;20.10;18.10;;;;;;;11.89;100.00;101979.16;5053047;28;20060;-52
2023/05/13 06:50:45;;;;;;;19.33;17.42;;;;;;;12.15;100.00;101982.00;5052365;28;20040;-52
2023/05/13 06:53:10;;;;;;;20.15;18.13;;;;;;;12.42;100.00;101979.63;5053190;28;20024;-50
2023/05/13 06:55:40;;;;;;;19.45;17.48;;;;;;;12.71;100.00;101987.66;5052748;28;20033;-52
2023/05/13 06:58:07;;;;;;;19.75;17.67;;;;;;;12.93;100.00;101980.72;5052085;28;20464;-51
2023/05/13 07:00:35;;;;;;;19.57;17.57;;;;;;;13.09;100.00;101985.66;5052410;28;20391;-52
2023/05/13 07:03:02;;;;;;;19.38;17.08;;;;;;;13.05;100.00;101990.66;5052179;28;20037;-50
2023/05/13 07:05:27;;;;;;;19.60;17.40;;;;;;;13.05;100.00;101983.78;5052503;28;20045;-52
2023/05/13 07:07:53;;;;;;;19.77;17.75;;;;;;;13.16;100.00;101984.19;5053039;28;20477;-52
2023/05/13 07:10:18;;;;;;;18.85;16.98;;;;;;;13.29;100.00;101985.53;5051771;28;20033;-52
2023/05/13 07:12:43;;;;;;;20.35;17.17;;;;;;;13.33;100.00;101992.56;5052808;28;20480;-54
2023/05/13 07:15:09;;;;;;;21.48;17.20;;;;;;;13.36;100.00;101987.50;5052447;28;20117;-51
2023/05/13 07:17:35;;;;;;;19.23;16.65;;;;;;;13.37;100.00;101978.06;5051565;28;20504;-53
2023/05/13 07:20:01;;;;;;;20.23;16.75;;;;;;;13.55;100.00;101980.44;5052972;28;20119;-48
2023/05/13 07:22:27;;;;;;;18.50;16.58;;;;;;;13.76;100.00;101973.44;5052656;28;20025;-54
2023/05/13 07:24:52;;;;;;;18.30;16.48;;;;;;;14.08;100.00;101981.38;5052015;28;20025;-51
2023/05/13 07:27:18;;;;;;;18.92;16.40;;;;;;;14.41;100.00;101985.03;5052448;28;20025;-51
2023/05/13 07:29:43;;;;;;;16.77;15.02;;;;;;;14.65;100.00;101980.69;5052572;28;20538;-53
2023/05/13 07:32:08;;;;;;;16.40;14.70;;;;;;;14.66;98.05;101976.34;5052110;28;20303;-53
2023/05/13 07:34:33;;;;;;;17.75;14.75;;;;;;;14.54;97.93;101979.41;5052225;28;20028;-53
2023/05/13 07:36:59;;;;;;;17.65;15.80;;;;;;;14.61;100.00;101980.47;5052725;28;20052;-52
2023/05/13 07:39:25;;;;;;;17.67;15.73;;;;;;;14.75;100.00;101978.34;5051438;28;20028;-53
2023/05/13 07:41:50;;;;;;;17.67;15.90;;;;;;;14.81;100.00;101976.81;5052395;28;20025;-50
2023/05/13 07:44:15;;;;;;;17.45;13.98;;;;;;;14.95;96.05;101978.94;5052513;28;20032;-51
2023/05/13 07:46:40;;;;;;;15.30;12.98;;;;;;;14.98;92.48;101986.84;5051780;28;20025;-49
2023/05/13 07:49:07;;;;;;;16.75;13.45;;;;;;;14.94;90.95;101993.66;5052594;28;20029;-52
2023/05/13 07:51:34;;;;;;;15.43;12.52;;;;;;;14.95;90.24;101991.91;5052284;28;20019;-53
2023/05/13 07:53:59;;;;;;;16.42;13.55;;;;;;;15.09;91.51;101985.44;5051695;28;20157;-49
2023/05/13 07:56:25;;;;;;;16.70;12.68;;;;;;;15.06;91.68;101992.25;5052104;28;20105;-52
2023/05/13 07:58:50;;;;;;;16.45;13.40;;;;;;;14.94;91.35;101992.78;5052565;28;20029;-53
2023/05/13 08:01:15;;;;;;;18.90;14.07;;;;;;;14.81;92.39;101991.53;5051615;28;20465;-51
2023/05/13 08:03:41;;;;;;;21.05;12.85;;;;;;;14.69;92.64;101980.75;5052381;28;20114;-53
2023/05/13 08:06:06;;;;;;;15.48;13.82;;;;;;;14.68;95.31;101985.06;5052580;28;20537;-53
2023/05/13 08:08:32;;;;;;;18.92;14.85;;;;;;;14.96;94.25;101993.69;5051233;28;20413;-53
2023/05/13 08:10:57;;;;;;;17.05;13.93;;;;;;;15.23;93.67;101996.19;5052297;28;20025;-52
2023/05/13 08:13:22;;;;;;;14.93;13.43;;;;;;;15.42;93.77;101987.22;5051100;28;20107;-52
2023/05/13 08:15:48;;;;;;;16.20;13.77;;;;;;;15.58;93.62;101991.16;5052287;28;20024;-51
2023/05/13 08:18:14;;;;;;;16.27;13.90;;;;;;;15.69;91.42;101990.56;5054411;28;20040;-53
2023/05/13 08:20:39;;;;;;;13.63;12.18;;;;;;;15.50;86.72;101994.34;5055093;28;20051;-49
2023/05/13 08:23:05;;;;;;;14.55;13.07;;;;;;;15.38;88.65;101992.31;5056116;28;20025;-53
2023/05/13 08:25:30;;;;;;;17.33;13.63;;;;;;;15.30;88.36;101995.56;5055749;28;20028;-52
2023/05/13 08:27:56;;;;;;;16.63;13.88;;;;;;;15.31;90.97;101997.31;5054926;28;20013;-53
2023/05/13 08:30:21;;;;;;;18.17;13.85;;;;;;;15.46;92.43;101999.44;5054983;28;20530;-53
2023/05/13 08:32:47;;;;;;;16.73;13.55;;;;;;;15.82;92.72;101994.38;5055834;28;20067;-52
2023/05/13 08:35:12;;;;;;;17.58;13.73;;;;;;;16.13;88.95;101993.44;5054922;28;20033;-53
2023/05/13 08:37:38;;;;;;;16.60;14.82;;;;;;;16.42;92.49;101990.66;5055382;28;20104;-52
2023/05/13 08:40:04;;;;;;;15.98;14.32;;;;;;;16.52;87.69;101992.63;5055612;28;20493;-53
2023/05/13 08:42:38;;;;;;;16.00;13.90;;;;;;;16.64;90.07;101997.25;5054429;28;20033;-53
2023/05/13 08:45:13;;;;;;;20.85;14.43;;;;;;;16.75;87.91;101984.50;5055738;28;20022;-53
2023/05/13 08:47:47;;;;;;;16.17;13.15;;;;;;;16.68;83.94;101988.69;5055140;28;20491;-53
2023/05/13 08:50:13;;;;;;;18.45;14.30;;;;;;;16.83;90.78;101997.69;5054637;28;20028;-52
2023/05/13 08:52:39;;;;;;;17.98;13.60;;;;;;;16.85;85.70;101998.56;5055191;28;20032;-52
2023/05/13 08:55:05;;;;;;;14.60;13.10;;;;;;;16.89;83.97;101996.09;5055177;28;20480;-53
2023/05/13 08:57:30;;;;;;;14.65;13.13;;;;;;;17.05;87.12;101994.72;5054425;28;20036;-52
2023/05/13 08:59:55;;;;;;;15.57;13.60;;;;;;;17.17;84.51;101991.50;5055206;28;20029;-53
2023/05/13 09:02:22;;;;;;;17.80;13.35;;;;;;;17.30;84.28;101990.03;5055226;28;20033;-52
2023/05/13 09:04:52;;;;;;;16.25;13.90;;;;;;;17.49;85.01;101990.38;5054271;28;20117;-52
2023/05/13 09:07:17;;;;;;;15.55;13.55;;;;;;;17.65;83.89;101981.09;5054693;28;20025;-51
2023/05/13 09:09:43;;;;;;;16.27;13.70;;;;;;;17.72;84.73;101981.25;5054415;28;20043;-53
2023/05/13 09:12:08;;;;;;;16.13;12.73;;;;;;;17.90;83.71;101983.31;5055341;28;20119;-53
2023/05/13 09:14:34;;;;;;;18.45;12.43;;;;;;;17.96;79.20;101987.81;5054563;28;20128;-52
2023/05/13 09:17:02;;;;;;;13.93;12.52;;;;;;;18.12;80.21;101988.06;5054193;28;20029;-53
2023/05/13 09:19:28;;;;;;;17.45;13.57;;;;;;;18.31;82.20;101984.88;5054523;28;20119;-53
2023/05/13 09:21:53;;;;;;;13.38;11.98;;;;;;;18.40;78.85;101979.81;5054763;28;20104;-53
2023/05/13 09:24:20;;;;;;;15.80;12.30;;;;;;;18.58;82.04;101976.59;5053758;28;20048;-52
2023/05/13 09:26:47;;;;;;;17.70;11.50;;;;;;;18.71;75.59;101977.63;5054847;28;20033;-53
2023/05/13 09:29:24;;;;;;;13.50;12.02;;;;;;;18.90;77.60;101975.31;5054293;28;20100;-53
2023/05/13 09:31:54;;;;;;;13.23;11.77;;;;;;;19.08;77.62;101974.66;5053911;28;20044;-53
2023/05/13 09:34:28;;;;;;;12.60;10.95;;;;;;;19.16;73.27;101979.97;5053985;28;20473;-53
2023/05/13 09:37:07;;;;;;;12.25;10.95;;;;;;;19.37;75.80;101964.56;5054647;28;20028;-53
2023/05/13 09:39:38;;;;;;;12.98;10.55;;;;;;;19.45;71.74;101976.84;5053486;28;20528;-53
2023/05/13 09:42:03;;;;;;;14.95;10.60;;;;;;;19.65;72.48;101957.00;5054525;28;20033;-53
2023/05/13 09:44:29;;;;;;;13.77;10.52;;;;;;;19.87;69.38;101963.34;5053982;28;20086;-53
2023/05/13 09:46:54;;;;;;;12.52;9.70;;;;;;;20.02;67.40;101962.56;5053850;28;20021;-53
2023/05/13 09:49:25;;;;;;;12.75;10.05;;;;;;;20.22;66.83;101964.50;5053911;28;20103;-54
2023/05/13 09:51:51;;;;;;;13.10;9.65;;;;;;;20.62;68.93;101963.84;5053282;28;20034;-53
2023/05/13 09:54:16;;;;;;;11.23;8.98;;;;;;;20.78;65.35;101965.72;5053887;28;20043;-52
2023/05/13 09:56:41;;;;;;;10.20;9.07;;;;;;;21.10;61.35;101966.75;5054111;28;20032;-53
2023/05/13 09:59:07;;;;;;;12.38;9.57;;;;;;;21.48;63.46;101963.34;5053299;28;20066;-53
2023/05/13 10:01:34;;;;;;;13.27;9.02;;;;;;;21.47;56.06;101961.59;5053791;28;20044;-49
2023/05/13 10:03:59;;;;;;;15.48;9.55;;;;;;;21.90;60.04;101966.03;5053936;28;20017;-54
2023/05/13 10:06:29;;;;;;;12.75;8.70;;;;;;;22.42;59.83;101965.19;5053023;28;20029;-53
2023/05/13 10:08:59;;;;;;;13.68;8.27;;;;;;;23.18;57.88;101963.19;5054125;28;20047;-53
2023/05/13 10:11:26;;;;;;;9.73;7.93;;;;;;;23.95;53.38;101954.78;5053646;28;20104;-49
2023/05/13 10:14:03;;;;;;;11.25;7.88;;;;;;;24.78;53.80;101957.47;5052822;28;20518;-50
2023/05/13 10:16:31;;;;;;;10.23;6.97;;;;;;;25.60;51.09;101957.25;5053628;28;20035;-54
2023/05/13 10:18:57;;;;;;;10.73;6.82;;;;;;;25.89;42.92;101961.19;5053855;28;20059;-53
2023/05/13 10:21:25;;;;;;;12.75;6.18;;;;;;;26.40;41.58;101956.78;5052679;28;20385;-53
2023/05/13 10:23:51;;;;;;;9.57;5.68;;;;;;;26.98;41.69;101956.53;5053724;28;20025;-53
2023/05/13 10:26:16;;;;;;;8.32;6.05;;;;;;;26.99;37.59;101955.63;5053352;28;20033;-54
2023/05/13 10:28:42;;;;;;;9.85;6.03;;;;;;;27.46;39.52;101958.13;5052724;28;20109;-54
2023/05/13 10:31:08;;;;;;;10.15;6.20;;;;;;;27.75;39.23;101950.34;5053452;28;20020;-53
2023/05/13 10:33:33;;;;;;;9.13;5.75;;;;;;;28.22;36.76;101950.03;5053279;28;20035;-51
2023/05/13 10:36:41;;;;;;;9.52;6.10;;;;;;;28.63;39.78;101954.25;5052707;28;20440;-52
2023/05/13 10:39:43;;;;;;;8.68;5.10;;;;;;;28.64;38.18;101948.88;5052645;28;20029;-51
2023/05/13 10:42:38;;;;;;;7.03;5.53;;;;;;;28.68;37.67;101947.06;5052350;28;20507;-51
2023/05/13 10:45:04;;;;;;;6.32;5.10;;;;;;;28.63;33.84;101955.09;5053187;28;20029;-51
2023/05/13 10:47:32;;;;;;;9.23;4.90;;;;;;;28.80;33.51;101946.69;5052730;28;20024;-51
2023/05/13 10:49:57;;;;;;;10.00;5.07;;;;;;;29.01;35.33;101950.47;5052592;28;20025;-52
2023/05/13 10:52:22;;;;;;;7.43;4.53;;;;;;;28.58;32.29;101947.25;5053104;28;20422;-53
2023/05/13 10:55:01;;;;;;;7.30;4.32;;;;;;;29.20;33.69;101950.75;5052872;28;20030;-51
2023/05/13 10:57:36;;;;;;;9.95;4.28;;;;;;;29.27;33.29;101948.84;5052935;28;20495;-52
2023/05/13 11:00:13;;;;;;;11.10;4.47;;;;;;;29.04;32.99;101944.22;5052971;28;20029;-51
2023/05/13 11:02:38;;;;;;;9.82;3.75;;;;;;;29.26;30.33;101938.22;5052189;28;20031;-51
2023/05/13 11:05:04;;;;;;;9.23;3.50;;;;;;;29.14;31.87;101935.06;5053010;28;20108;-52